sensor_id;sensor_type;location;lat;lon;timestamp;pressure;altitude;pressure_sealevel;temperature;humidity
72308;BME280;60257;42.638;23.376;2023-05-14T00:00:13;95031.00;;;12.84;57.34
72308;BME280;60257;42.638;23.376;2023-05-14T00:02:39;95049.75;;;12.94;57.58
72308;BME280;60257;42.638;23.376;2023-05-14T00:05:05;95050.66;;;12.98;58.07
72308;BME280;60257;42.638;23.376;2023-05-14T00:07:31;95046.03;;;13.02;57.60
72308;BME280;60257;42.638;23.376;2023-05-14T00:09:57;95024.44;;;12.89;57.31
72308;BME280;60257;42.638;23.376;2023-05-14T00:12:23;95036.78;;;12.95;57.41
72308;BME280;60257;42.638;23.376;2023-05-14T00:14:49;95041.31;;;13.03;57.34
72308;BME280;60257;42.638;23.376;2023-05-14T00:17:14;95014.91;;;12.86;57.29
72308;BME280;60257;42.638;23.376;2023-05-14T00:19:40;95011.97;;;12.79;57.06
72308;BME280;60257;42.638;23.376;2023-05-14T00:22:09;95030.28;;;12.87;57.44
72308;BME280;60257;42.638;23.376;2023-05-14T00:24:35;95033.16;;;12.91;57.30
72308;BME280;60257;42.638;23.376;2023-05-14T00:27:02;95038.72;;;12.94;57.41
72308;BME280;60257;42.638;23.376;2023-05-14T00:29:27;95012.28;;;12.90;57.29
72308;BME280;60257;42.638;23.376;2023-05-14T00:31:53;95017.84;;;12.93;57.26
72308;BME280;60257;42.638;23.376;2023-05-14T00:34:18;95001.63;;;12.88;57.04
72308;BME280;60257;42.638;23.376;2023-05-14T00:36:43;95000.03;;;13.03;57.53
72308;BME280;60257;42.638;23.376;2023-05-14T00:39:09;94972.75;;;12.82;57.46
72308;BME280;60257;42.638;23.376;2023-05-14T00:41:34;95005.09;;;13.01;56.57
72308;BME280;60257;42.638;23.376;2023-05-14T00:44:00;95003.94;;;13.02;56.26
72308;BME280;60257;42.638;23.376;2023-05-14T00:46:26;95014.94;;;13.02;56.51
72308;BME280;60257;42.638;23.376;2023-05-14T00:48:52;94982.69;;;12.87;56.82
72308;BME280;60257;42.638;23.376;2023-05-14T00:51:18;95006.44;;;12.91;56.84
72308;BME280;60257;42.638;23.376;2023-05-14T00:53:45;95014.41;;;12.96;56.67
72308;BME280;60257;42.638;23.376;2023-05-14T00:56:10;95009.19;;;12.91;56.70
72308;BME280;60257;42.638;23.376;2023-05-14T00:58:36;94997.41;;;12.79;56.60
72308;BME280;60257;42.638;23.376;2023-05-14T01:01:02;95002.06;;;12.90;56.24
72308;BME280;60257;42.638;23.376;2023-05-14T01:03:29;94994.63;;;12.91;55.88
72308;BME280;60257;42.638;23.376;2023-05-14T01:11:28;95000.66;;;12.96;55.92
72308;BME280;60257;42.638;23.376;2023-05-14T01:16:53;94970.69;;;12.79;55.11
72308;BME280;60257;42.638;23.376;2023-05-14T01:19:28;95008.09;;;12.96;55.35
72308;BME280;60257;42.638;23.376;2023-05-14T01:21:57;94994.97;;;12.89;54.93
72308;BME280;60257;42.638;23.376;2023-05-14T01:24:23;94965.75;;;12.69;54.58
72308;BME280;60257;42.638;23.376;2023-05-14T01:26:48;95006.25;;;12.84;54.98
72308;BME280;60257;42.638;23.376;2023-05-14T01:29:18;95009.88;;;12.88;55.39
72308;BME280;60257;42.638;23.376;2023-05-14T01:31:48;95018.78;;;12.97;55.71
72308;BME280;60257;42.638;23.376;2023-05-14T01:34:14;95014.56;;;12.88;55.53
72308;BME280;60257;42.638;23.376;2023-05-14T01:36:41;95007.75;;;12.82;54.69
72308;BME280;60257;42.638;23.376;2023-05-14T01:39:07;95012.91;;;12.83;55.53
72308;BME280;60257;42.638;23.376;2023-05-14T01:41:35;94998.47;;;12.58;55.34
72308;BME280;60257;42.638;23.376;2023-05-14T01:44:02;95012.88;;;12.67;55.50
72308;BME280;60257;42.638;23.376;2023-05-14T01:46:31;95006.44;;;12.63;55.46
72308;BME280;60257;42.638;23.376;2023-05-14T01:48:57;95019.25;;;12.71;55.22
72308;BME280;60257;42.638;23.376;2023-05-14T01:51:22;95025.56;;;12.72;55.20
72308;BME280;60257;42.638;23.376;2023-05-14T01:53:48;94977.75;;;12.49;55.57
72308;BME280;60257;42.638;23.376;2023-05-14T01:56:13;95003.03;;;12.54;55.93
72308;BME280;60257;42.638;23.376;2023-05-14T01:58:39;95010.94;;;12.56;56.67
72308;BME280;60257;42.638;23.376;2023-05-14T02:01:04;95037.16;;;12.65;57.86
72308;BME280;60257;42.638;23.376;2023-05-14T02:03:30;95031.97;;;12.48;59.08
72308;BME280;60257;42.638;23.376;2023-05-14T02:05:55;95019.28;;;12.44;59.48
72308;BME280;60257;42.638;23.376;2023-05-14T02:08:21;95030.34;;;12.47;59.62
72308;BME280;60257;42.638;23.376;2023-05-14T02:10:46;95030.69;;;12.30;61.14
72308;BME280;60257;42.638;23.376;2023-05-14T02:13:12;95039.00;;;12.33;61.17
72308;BME280;60257;42.638;23.376;2023-05-14T02:15:37;95042.25;;;12.23;61.18
72308;BME280;60257;42.638;23.376;2023-05-14T02:18:03;95038.81;;;12.26;61.10
72308;BME280;60257;42.638;23.376;2023-05-14T02:20:28;95042.34;;;12.27;61.26
72308;BME280;60257;42.638;23.376;2023-05-14T02:22:54;95032.22;;;12.15;61.55
72308;BME280;60257;42.638;23.376;2023-05-14T02:25:19;95033.69;;;12.13;61.73
72308;BME280;60257;42.638;23.376;2023-05-14T02:27:45;95033.16;;;12.07;61.83
72308;BME280;60257;42.638;23.376;2023-05-14T02:30:10;95036.69;;;12.08;61.21
72308;BME280;60257;42.638;23.376;2023-05-14T02:32:36;95021.69;;;11.93;61.46
72308;BME280;60257;42.638;23.376;2023-05-14T02:35:02;95025.38;;;11.97;62.05
72308;BME280;60257;42.638;23.376;2023-05-14T02:37:28;95042.41;;;12.03;62.04
72308;BME280;60257;42.638;23.376;2023-05-14T02:39:53;95050.19;;;12.01;61.58
72308;BME280;60257;42.638;23.376;2023-05-14T02:42:18;95059.25;;;12.01;61.95
72308;BME280;60257;42.638;23.376;2023-05-14T02:44:44;95045.88;;;11.87;61.90
72308;BME280;60257;42.638;23.376;2023-05-14T02:47:09;95060.53;;;11.91;62.59
72308;BME280;60257;42.638;23.376;2023-05-14T02:49:35;95061.91;;;11.98;61.99
72308;BME280;60257;42.638;23.376;2023-05-14T02:52:00;95066.81;;;12.04;62.29
72308;BME280;60257;42.638;23.376;2023-05-14T02:54:26;95071.84;;;12.02;62.34
72308;BME280;60257;42.638;23.376;2023-05-14T02:56:51;95073.13;;;11.92;62.97
72308;BME280;60257;42.638;23.376;2023-05-14T02:59:16;95075.75;;;12.01;62.89
72308;BME280;60257;42.638;23.376;2023-05-14T03:01:42;95058.94;;;11.90;62.66
72308;BME280;60257;42.638;23.376;2023-05-14T03:04:08;95065.66;;;11.93;64.01
72308;BME280;60257;42.638;23.376;2023-05-14T03:06:33;95035.81;;;11.79;64.33
72308;BME280;60257;42.638;23.376;2023-05-14T03:08:58;95067.19;;;11.90;64.51
72308;BME280;60257;42.638;23.376;2023-05-14T03:11:24;95068.31;;;11.89;64.56
72308;BME280;60257;42.638;23.376;2023-05-14T03:13:50;95047.84;;;11.75;64.42
72308;BME280;60257;42.638;23.376;2023-05-14T03:16:15;95023.88;;;11.63;64.43
72308;BME280;60257;42.638;23.376;2023-05-14T03:18:41;95025.50;;;11.64;64.38
72308;BME280;60257;42.638;23.376;2023-05-14T03:21:06;95037.50;;;11.72;64.73
72308;BME280;60257;42.638;23.376;2023-05-14T03:23:33;95021.28;;;11.67;64.93
72308;BME280;60257;42.638;23.376;2023-05-14T03:25:59;95049.22;;;11.81;64.85
72308;BME280;60257;42.638;23.376;2023-05-14T03:28:25;95055.97;;;11.83;64.88
72308;BME280;60257;42.638;23.376;2023-05-14T03:30:51;95034.66;;;11.68;66.27
72308;BME280;60257;42.638;23.376;2023-05-14T03:33:16;95026.31;;;11.40;66.67
72308;BME280;60257;42.638;23.376;2023-05-14T03:35:42;95035.09;;;11.46;66.61
72308;BME280;60257;42.638;23.376;2023-05-14T03:38:07;95040.84;;;11.41;66.50
72308;BME280;60257;42.638;23.376;2023-05-14T03:40:33;95060.53;;;11.43;67.75
72308;BME280;60257;42.638;23.376;2023-05-14T03:42:58;95050.56;;;11.38;67.29
72308;BME280;60257;42.638;23.376;2023-05-14T03:45:24;95047.00;;;11.26;67.26
72308;BME280;60257;42.638;23.376;2023-05-14T03:47:51;95052.63;;;11.29;68.17
72308;BME280;60257;42.638;23.376;2023-05-14T03:50:16;95028.69;;;11.17;67.62
72308;BME280;60257;42.638;23.376;2023-05-14T03:52:42;95054.66;;;11.32;67.24
72308;BME280;60257;42.638;23.376;2023-05-14T03:55:08;95029.41;;;11.14;67.29
72308;BME280;60257;42.638;23.376;2023-05-14T03:57:34;95063.84;;;11.36;67.37
72308;BME280;60257;42.638;23.376;2023-05-14T04:00:00;95031.47;;;11.30;67.42
72308;BME280;60257;42.638;23.376;2023-05-14T04:02:26;95044.63;;;11.36;67.38
72308;BME280;60257;42.638;23.376;2023-05-14T04:04:51;95047.47;;;11.40;66.93
72308;BME280;60257;42.638;23.376;2023-05-14T04:07:17;95045.41;;;11.49;66.04
72308;BME280;60257;42.638;23.376;2023-05-14T04:09:42;95048.06;;;11.45;66.71
72308;BME280;60257;42.638;23.376;2023-05-14T04:12:08;95054.22;;;11.42;66.24
72308;BME280;60257;42.638;23.376;2023-05-14T04:14:33;95043.00;;;11.23;66.42
72308;BME280;60257;42.638;23.376;2023-05-14T04:16:59;95057.88;;;11.34;67.06
72308;BME280;60257;42.638;23.376;2023-05-14T04:19:25;95062.13;;;11.44;66.74
72308;BME280;60257;42.638;23.376;2023-05-14T04:21:50;95066.91;;;11.47;67.04
72308;BME280;60257;42.638;23.376;2023-05-14T04:24:16;95056.16;;;11.42;66.60
72308;BME280;60257;42.638;23.376;2023-05-14T04:26:41;95075.41;;;11.42;67.56
72308;BME280;60257;42.638;23.376;2023-05-14T04:29:07;95070.56;;;11.39;66.83
72308;BME280;60257;42.638;23.376;2023-05-14T04:31:32;95078.81;;;11.39;66.80
72308;BME280;60257;42.638;23.376;2023-05-14T04:33:58;95060.88;;;11.29;66.35
72308;BME280;60257;42.638;23.376;2023-05-14T04:36:23;95089.50;;;11.52;65.96
72308;BME280;60257;42.638;23.376;2023-05-14T04:38:49;95075.06;;;11.43;65.64
72308;BME280;60257;42.638;23.376;2023-05-14T04:41:14;95066.25;;;11.38;65.33
72308;BME280;60257;42.638;23.376;2023-05-14T04:43:40;95092.00;;;11.57;65.19
72308;BME280;60257;42.638;23.376;2023-05-14T04:46:05;95094.97;;;11.65;65.98
72308;BME280;60257;42.638;23.376;2023-05-14T04:48:31;95073.13;;;11.44;65.83
72308;BME280;60257;42.638;23.376;2023-05-14T04:50:56;95101.28;;;11.53;67.14
72308;BME280;60257;42.638;23.376;2023-05-14T04:53:22;95106.06;;;11.44;67.97
72308;BME280;60257;42.638;23.376;2023-05-14T04:55:48;95094.72;;;11.33;66.98
72308;BME280;60257;42.638;23.376;2023-05-14T04:58:13;95111.00;;;11.50;67.93
72308;BME280;60257;42.638;23.376;2023-05-14T05:00:39;95102.84;;;11.30;68.28
72308;BME280;60257;42.638;23.376;2023-05-14T05:03:05;95093.56;;;11.22;69.28
72308;BME280;60257;42.638;23.376;2023-05-14T05:05:30;95114.38;;;11.23;68.33
72308;BME280;60257;42.638;23.376;2023-05-14T05:07:56;95133.00;;;11.17;69.57
72308;BME280;60257;42.638;23.376;2023-05-14T05:10:21;95138.72;;;11.12;70.73
72308;BME280;60257;42.638;23.376;2023-05-14T05:12:47;95136.63;;;10.97;70.98
72308;BME280;60257;42.638;23.376;2023-05-14T05:15:12;95134.84;;;10.80;71.52
72308;BME280;60257;42.638;23.376;2023-05-14T05:17:38;95163.72;;;10.78;72.68
72308;BME280;60257;42.638;23.376;2023-05-14T05:20:03;95160.72;;;10.71;72.77
72308;BME280;60257;42.638;23.376;2023-05-14T05:22:32;95147.78;;;10.59;74.08
72308;BME280;60257;42.638;23.376;2023-05-14T05:24:57;95161.31;;;10.76;74.27
72308;BME280;60257;42.638;23.376;2023-05-14T05:27:23;95146.69;;;10.52;74.35
72308;BME280;60257;42.638;23.376;2023-05-14T05:29:50;95174.84;;;10.61;74.49
72308;BME280;60257;42.638;23.376;2023-05-14T05:32:15;95151.22;;;10.48;74.99
72308;BME280;60257;42.638;23.376;2023-05-14T05:34:41;95168.81;;;10.47;75.10
72308;BME280;60257;42.638;23.376;2023-05-14T05:37:06;95173.44;;;10.55;75.28
72308;BME280;60257;42.638;23.376;2023-05-14T05:39:33;95172.63;;;10.54;75.73
72308;BME280;60257;42.638;23.376;2023-05-14T05:42:00;95187.63;;;10.57;75.54
72308;BME280;60257;42.638;23.376;2023-05-14T05:44:26;95157.59;;;10.39;75.94
72308;BME280;60257;42.638;23.376;2023-05-14T05:46:52;95161.00;;;10.36;75.88
72308;BME280;60257;42.638;23.376;2023-05-14T05:49:20;95186.34;;;10.33;76.82
72308;BME280;60257;42.638;23.376;2023-05-14T05:51:45;95168.59;;;10.31;77.69
72308;BME280;60257;42.638;23.376;2023-05-14T05:54:11;95176.66;;;10.36;77.84
72308;BME280;60257;42.638;23.376;2023-05-14T05:56:36;95196.78;;;10.40;77.56
72308;BME280;60257;42.638;23.376;2023-05-14T05:59:02;95166.94;;;10.09;77.97
72308;BME280;60257;42.638;23.376;2023-05-14T06:01:28;95175.16;;;10.18;77.67
72308;BME280;60257;42.638;23.376;2023-05-14T06:03:53;95172.31;;;10.35;77.55
72308;BME280;60257;42.638;23.376;2023-05-14T06:06:19;95179.34;;;10.45;77.77
72308;BME280;60257;42.638;23.376;2023-05-14T06:08:45;95158.31;;;10.28;77.85
72308;BME280;60257;42.638;23.376;2023-05-14T06:11:11;95164.25;;;10.30;78.36
72308;BME280;60257;42.638;23.376;2023-05-14T06:13:36;95140.81;;;10.12;78.51
72308;BME280;60257;42.638;23.376;2023-05-14T06:16:02;95181.13;;;10.40;78.45
72308;BME280;60257;42.638;23.376;2023-05-14T06:18:28;95178.72;;;10.39;78.48
72308;BME280;60257;42.638;23.376;2023-05-14T06:20:53;95160.25;;;10.27;78.52
72308;BME280;60257;42.638;23.376;2023-05-14T06:23:21;95146.41;;;10.24;78.84
72308;BME280;60257;42.638;23.376;2023-05-14T06:25:48;95162.88;;;10.45;78.13
72308;BME280;60257;42.638;23.376;2023-05-14T06:28:14;95132.09;;;10.18;78.07
72308;BME280;60257;42.638;23.376;2023-05-14T06:30:40;95167.47;;;10.32;79.03
72308;BME280;60257;42.638;23.376;2023-05-14T06:33:06;95152.09;;;10.19;79.85
72308;BME280;60257;42.638;23.376;2023-05-14T06:35:31;95183.91;;;10.32;79.89
72308;BME280;60257;42.638;23.376;2023-05-14T06:37:58;95187.78;;;10.31;80.06
72308;BME280;60257;42.638;23.376;2023-05-14T06:40:24;95191.63;;;10.38;78.80
72308;BME280;60257;42.638;23.376;2023-05-14T06:42:50;95178.50;;;10.15;78.86
72308;BME280;60257;42.638;23.376;2023-05-14T06:45:15;95173.72;;;10.12;81.13
72308;BME280;60257;42.638;23.376;2023-05-14T06:47:41;95148.91;;;10.08;80.58
72308;BME280;60257;42.638;23.376;2023-05-14T06:50:06;95157.69;;;10.22;80.65
72308;BME280;60257;42.638;23.376;2023-05-14T06:52:32;95166.75;;;10.44;81.35
72308;BME280;60257;42.638;23.376;2023-05-14T06:54:58;95143.53;;;10.41;82.07
72308;BME280;60257;42.638;23.376;2023-05-14T06:57:23;95160.34;;;10.60;81.64
72308;BME280;60257;42.638;23.376;2023-05-14T06:59:49;95133.97;;;10.47;79.90
72308;BME280;60257;42.638;23.376;2023-05-14T07:02:14;95147.28;;;10.78;79.89
72308;BME280;60257;42.638;23.376;2023-05-14T07:04:40;95141.72;;;10.87;80.13
72308;BME280;60257;42.638;23.376;2023-05-14T07:07:05;95129.13;;;10.86;79.21
72308;BME280;60257;42.638;23.376;2023-05-14T07:09:31;95132.13;;;10.93;79.34
72308;BME280;60257;42.638;23.376;2023-05-14T07:11:56;95143.50;;;11.15;79.92
72308;BME280;60257;42.638;23.376;2023-05-14T07:14:22;95155.78;;;11.18;79.92
72308;BME280;60257;42.638;23.376;2023-05-14T07:16:47;95155.44;;;11.19;79.26
72308;BME280;60257;42.638;23.376;2023-05-14T07:19:13;95145.44;;;11.03;79.30
72308;BME280;60257;42.638;23.376;2023-05-14T07:21:38;95179.75;;;11.09;78.74
72308;BME280;60257;42.638;23.376;2023-05-14T07:24:04;95190.56;;;10.93;79.23
72308;BME280;60257;42.638;23.376;2023-05-14T07:26:29;95208.56;;;11.03;79.81
72308;BME280;60257;42.638;23.376;2023-05-14T07:28:55;95179.66;;;10.85;80.00
72308;BME280;60257;42.638;23.376;2023-05-14T07:31:21;95181.31;;;10.77;80.13
72308;BME280;60257;42.638;23.376;2023-05-14T07:33:46;95165.75;;;10.48;80.39
72308;BME280;60257;42.638;23.376;2023-05-14T07:36:12;95170.44;;;10.48;80.53
72308;BME280;60257;42.638;23.376;2023-05-14T07:38:38;95175.16;;;10.38;80.64
72308;BME280;60257;42.638;23.376;2023-05-14T07:41:03;95185.63;;;10.45;80.63
72308;BME280;60257;42.638;23.376;2023-05-14T07:43:29;95164.13;;;10.47;80.53
72308;BME280;60257;42.638;23.376;2023-05-14T07:45:55;95153.22;;;10.38;80.60
72308;BME280;60257;42.638;23.376;2023-05-14T07:48:20;95165.81;;;10.39;81.53
72308;BME280;60257;42.638;23.376;2023-05-14T07:50:47;95176.50;;;10.53;81.23
72308;BME280;60257;42.638;23.376;2023-05-14T07:53:12;95178.94;;;10.55;81.90
72308;BME280;60257;42.638;23.376;2023-05-14T07:55:38;95193.13;;;10.57;81.92
72308;BME280;60257;42.638;23.376;2023-05-14T07:58:03;95202.63;;;10.59;81.32
72308;BME280;60257;42.638;23.376;2023-05-14T08:00:29;95216.13;;;10.64;81.92
72308;BME280;60257;42.638;23.376;2023-05-14T08:02:54;95179.34;;;10.45;81.73
72308;BME280;60257;42.638;23.376;2023-05-14T08:05:20;95180.41;;;10.52;80.93
72308;BME280;60257;42.638;23.376;2023-05-14T08:07:45;95170.16;;;10.61;80.72
72308;BME280;60257;42.638;23.376;2023-05-14T08:10:11;95181.81;;;10.79;80.53
72308;BME280;60257;42.638;23.376;2023-05-14T08:12:36;95162.38;;;10.84;80.37
72308;BME280;60257;42.638;23.376;2023-05-14T08:15:04;95175.59;;;10.91;80.01
72308;BME280;60257;42.638;23.376;2023-05-14T08:17:30;95168.56;;;10.81;80.65
72308;BME280;60257;42.638;23.376;2023-05-14T08:19:55;95155.84;;;10.76;80.32
72308;BME280;60257;42.638;23.376;2023-05-14T08:22:20;95184.25;;;10.93;80.05
72308;BME280;60257;42.638;23.376;2023-05-14T08:24:46;95188.75;;;10.97;79.58
72308;BME280;60257;42.638;23.376;2023-05-14T08:27:11;95170.13;;;11.03;79.18
72308;BME280;60257;42.638;23.376;2023-05-14T08:29:37;95166.66;;;11.14;78.97
72308;BME280;60257;42.638;23.376;2023-05-14T08:32:02;95167.13;;;11.29;78.53
72308;BME280;60257;42.638;23.376;2023-05-14T08:34:29;95167.72;;;11.46;77.22
72308;BME280;60257;42.638;23.376;2023-05-14T08:36:54;95158.16;;;11.52;76.54
72308;BME280;60257;42.638;23.376;2023-05-14T08:39:20;95135.94;;;11.45;77.16
72308;BME280;60257;42.638;23.376;2023-05-14T08:41:46;95143.84;;;11.59;78.15
72308;BME280;60257;42.638;23.376;2023-05-14T08:44:14;95144.75;;;11.63;77.95
72308;BME280;60257;42.638;23.376;2023-05-14T08:46:40;95141.59;;;11.85;77.44
72308;BME280;60257;42.638;23.376;2023-05-14T08:49:14;95150.31;;;11.87;76.95
72308;BME280;60257;42.638;23.376;2023-05-14T08:51:43;95127.75;;;11.94;77.73
72308;BME280;60257;42.638;23.376;2023-05-14T08:54:11;95136.78;;;11.94;76.27
72308;BME280;60257;42.638;23.376;2023-05-14T08:56:43;95142.41;;;11.86;76.11
72308;BME280;60257;42.638;23.376;2023-05-14T08:59:09;95114.66;;;11.54;77.10
72308;BME280;60257;42.638;23.376;2023-05-14T09:01:37;95138.59;;;11.66;78.47
72308;BME280;60257;42.638;23.376;2023-05-14T09:04:04;95127.13;;;11.64;76.93
72308;BME280;60257;42.638;23.376;2023-05-14T09:06:35;95127.84;;;11.85;77.90
72308;BME280;60257;42.638;23.376;2023-05-14T09:09:02;95105.28;;;11.68;77.19
72308;BME280;60257;42.638;23.376;2023-05-14T09:11:28;95132.53;;;11.85;76.86
72308;BME280;60257;42.638;23.376;2023-05-14T09:13:53;95101.94;;;11.62;77.48
72308;BME280;60257;42.638;23.376;2023-05-14T09:16:19;95131.66;;;11.81;76.88
72308;BME280;60257;42.638;23.376;2023-05-14T09:18:46;95117.44;;;11.79;76.49
72308;BME280;60257;42.638;23.376;2023-05-14T09:21:14;95123.28;;;11.89;77.43
72308;BME280;60257;42.638;23.376;2023-05-14T09:23:43;95146.06;;;12.14;77.33
72308;BME280;60257;42.638;23.376;2023-05-14T09:26:09;95142.63;;;12.05;77.24
72308;BME280;60257;42.638;23.376;2023-05-14T09:28:39;95141.16;;;11.95;76.64
72308;BME280;60257;42.638;23.376;2023-05-14T09:31:05;95131.31;;;12.07;77.15
72308;BME280;60257;42.638;23.376;2023-05-14T09:33:31;95103.13;;;11.98;75.59
72308;BME280;60257;42.638;23.376;2023-05-14T09:36:01;95110.47;;;12.06;74.50
72308;BME280;60257;42.638;23.376;2023-05-14T09:38:30;95120.84;;;12.00;74.92
72308;BME280;60257;42.638;23.376;2023-05-14T09:40:59;95128.66;;;11.86;75.10
72308;BME280;60257;42.638;23.376;2023-05-14T09:43:25;95142.28;;;11.94;75.38
72308;BME280;60257;42.638;23.376;2023-05-14T09:45:51;95122.25;;;11.82;74.89
72308;BME280;60257;42.638;23.376;2023-05-14T09:48:18;95109.31;;;11.82;75.10
72308;BME280;60257;42.638;23.376;2023-05-14T09:50:45;95094.06;;;11.85;74.02
72308;BME280;60257;42.638;23.376;2023-05-14T09:53:12;95097.50;;;11.94;74.68
72308;BME280;60257;42.638;23.376;2023-05-14T09:55:38;95079.31;;;11.89;74.30
72308;BME280;60257;42.638;23.376;2023-05-14T09:58:04;95097.78;;;11.77;74.72
72308;BME280;60257;42.638;23.376;2023-05-14T10:00:34;95095.81;;;11.89;74.14
72308;BME280;60257;42.638;23.376;2023-05-14T10:03:04;95103.81;;;11.82;74.26
72308;BME280;60257;42.638;23.376;2023-05-14T10:05:35;95093.97;;;11.81;73.86
72308;BME280;60257;42.638;23.376;2023-05-14T10:08:25;95089.38;;;11.85;73.11
72308;BME280;60257;42.638;23.376;2023-05-14T10:10:53;95087.19;;;11.67;73.96
72308;BME280;60257;42.638;23.376;2023-05-14T10:13:25;95073.91;;;11.44;75.07
72308;BME280;60257;42.638;23.376;2023-05-14T10:16:00;95082.03;;;11.41;75.77
72308;BME280;60257;42.638;23.376;2023-05-14T10:18:34;95073.13;;;11.44;75.23
72308;BME280;60257;42.638;23.376;2023-05-14T10:21:04;95073.22;;;11.47;75.50
72308;BME280;60257;42.638;23.376;2023-05-14T10:23:30;95068.75;;;11.43;75.51
72308;BME280;60257;42.638;23.376;2023-05-14T10:25:57;95063.13;;;11.39;76.53
72308;BME280;60257;42.638;23.376;2023-05-14T10:28:23;95067.03;;;11.38;77.32
72308;BME280;60257;42.638;23.376;2023-05-14T10:30:49;95053.66;;;11.37;77.75
72308;BME280;60257;42.638;23.376;2023-05-14T10:33:15;95080.88;;;11.42;77.08
72308;BME280;60257;42.638;23.376;2023-05-14T10:36:02;95081.34;;;11.44;78.94
72308;BME280;60257;42.638;23.376;2023-05-14T10:38:29;95079.19;;;11.37;78.52
72308;BME280;60257;42.638;23.376;2023-05-14T10:41:10;95089.59;;;11.44;78.99
72308;BME280;60257;42.638;23.376;2023-05-14T10:43:38;95071.28;;;11.48;77.29
72308;BME280;60257;42.638;23.376;2023-05-14T10:46:05;95068.53;;;11.48;76.76
72308;BME280;60257;42.638;23.376;2023-05-14T10:48:31;95067.16;;;11.54;76.79
72308;BME280;60257;42.638;23.376;2023-05-14T10:50:58;95076.91;;;11.51;77.05
72308;BME280;60257;42.638;23.376;2023-05-14T10:53:37;95062.94;;;11.44;76.74
72308;BME280;60257;42.638;23.376;2023-05-14T10:56:11;95062.34;;;11.51;76.93
72308;BME280;60257;42.638;23.376;2023-05-14T10:58:39;95065.34;;;11.58;76.72
72308;BME280;60257;42.638;23.376;2023-05-14T11:01:06;95059.38;;;11.68;76.99
72308;BME280;60257;42.638;23.376;2023-05-14T11:03:46;95040.06;;;11.52;75.80
72308;BME280;60257;42.638;23.376;2023-05-14T11:06:17;95023.31;;;11.57;75.93
72308;BME280;60257;42.638;23.376;2023-05-14T11:08:43;95025.25;;;11.69;75.66
72308;BME280;60257;42.638;23.376;2023-05-14T11:11:09;95051.06;;;11.77;76.05
72308;BME280;60257;42.638;23.376;2023-05-14T11:13:35;95044.38;;;11.66;76.06
72308;BME280;60257;42.638;23.376;2023-05-14T11:16:01;95040.03;;;11.65;75.39
72308;BME280;60257;42.638;23.376;2023-05-14T11:18:30;95063.75;;;11.81;75.06
72308;BME280;60257;42.638;23.376;2023-05-14T11:21:01;95070.94;;;11.86;75.01
72308;BME280;60257;42.638;23.376;2023-05-14T11:23:27;95063.38;;;11.95;74.23
72308;BME280;60257;42.638;23.376;2023-05-14T11:25:53;95051.03;;;11.89;74.31
72308;BME280;60257;42.638;23.376;2023-05-14T11:28:20;95068.53;;;11.97;75.06
72308;BME280;60257;42.638;23.376;2023-05-14T11:30:47;95063.94;;;12.01;75.54
72308;BME280;60257;42.638;23.376;2023-05-14T11:33:12;95051.81;;;12.02;75.50
72308;BME280;60257;42.638;23.376;2023-05-14T11:35:38;95057.72;;;12.28;74.95
72308;BME280;60257;42.638;23.376;2023-05-14T11:38:03;95046.63;;;12.52;74.23
72308;BME280;60257;42.638;23.376;2023-05-14T11:40:29;95027.53;;;12.44;73.26
72308;BME280;60257;42.638;23.376;2023-05-14T11:42:55;95043.97;;;12.56;72.98
72308;BME280;60257;42.638;23.376;2023-05-14T11:45:25;95041.47;;;12.51;73.73
72308;BME280;60257;42.638;23.376;2023-05-14T11:47:51;95028.19;;;12.53;74.38
72308;BME280;60257;42.638;23.376;2023-05-14T11:50:18;95039.63;;;12.83;73.64
72308;BME280;60257;42.638;23.376;2023-05-14T11:52:43;95034.59;;;13.00;72.98
72308;BME280;60257;42.638;23.376;2023-05-14T11:55:10;95044.13;;;13.19;72.02
72308;BME280;60257;42.638;23.376;2023-05-14T11:57:36;95033.38;;;13.14;72.86
72308;BME280;60257;42.638;23.376;2023-05-14T12:00:02;95021.66;;;13.32;70.89
72308;BME280;60257;42.638;23.376;2023-05-14T12:02:30;95021.56;;;13.29;71.46
72308;BME280;60257;42.638;23.376;2023-05-14T12:04:56;95024.97;;;13.38;71.15
72308;BME280;60257;42.638;23.376;2023-05-14T12:07:21;95012.78;;;13.39;71.05
72308;BME280;60257;42.638;23.376;2023-05-14T12:09:48;95021.91;;;13.59;70.98
72308;BME280;60257;42.638;23.376;2023-05-14T12:12:19;95011.34;;;13.61;69.77
72308;BME280;60257;42.638;23.376;2023-05-14T12:14:46;95004.16;;;13.40;69.92
72308;BME280;60257;42.638;23.376;2023-05-14T12:17:14;95000.03;;;13.66;70.19
72308;BME280;60257;42.638;23.376;2023-05-14T12:19:41;94994.28;;;13.90;69.65
72308;BME280;60257;42.638;23.376;2023-05-14T12:22:09;94979.50;;;13.98;68.51
72308;BME280;60257;42.638;23.376;2023-05-14T12:24:34;94994.59;;;14.04;69.42
72308;BME280;60257;42.638;23.376;2023-05-14T12:27:01;94989.88;;;14.05;69.03
72308;BME280;60257;42.638;23.376;2023-05-14T12:29:27;94989.22;;;13.92;68.75
72308;BME280;60257;42.638;23.376;2023-05-14T12:31:52;94961.34;;;13.78;68.96
72308;BME280;60257;42.638;23.376;2023-05-14T12:34:18;94974.06;;;14.02;68.67
72308;BME280;60257;42.638;23.376;2023-05-14T12:36:43;94972.38;;;13.97;67.82
72308;BME280;60257;42.638;23.376;2023-05-14T12:39:10;94976.44;;;13.84;68.82
72308;BME280;60257;42.638;23.376;2023-05-14T12:41:36;94966.06;;;13.77;69.16
72308;BME280;60257;42.638;23.376;2023-05-14T12:44:03;94939.78;;;13.48;70.23
72308;BME280;60257;42.638;23.376;2023-05-14T12:46:29;94961.34;;;13.78;69.85
72308;BME280;60257;42.638;23.376;2023-05-14T12:48:55;94972.28;;;13.74;69.88
72308;BME280;60257;42.638;23.376;2023-05-14T12:51:21;94961.81;;;13.64;68.80
72308;BME280;60257;42.638;23.376;2023-05-14T12:53:47;94964.25;;;13.50;69.51